Time;durP1;ratioP1;P1;durP2;ratioP2;P2;SDS_P1;SDS_P2;PMS_P1;PMS_P2;Temp;Humidity;BMP_temperature;BMP_pressure;BME280_temperature;BME280_humidity;BME280_pressure;Samples;Min_cycle;Max_cycle;Signal;HPM_P1;HPM_P2
2022/07/16 00:03:53;;;;;;;1.47;1.10;;;15.50;99.90;;;;;;5059556;28;20663;-58
2022/07/16 00:06:20;;;;;;;2.67;1.00;;;15.50;99.90;;;;;;5061396;28;20756;-58
2022/07/16 00:08:49;;;;;;;1.50;1.27;;;15.50;99.90;;;;;;5063108;28;20194;-58
2022/07/16 00:11:17;;;;;;;2.57;1.37;;;15.50;99.90;;;;;;5061870;28;20282;-57
2022/07/16 00:13:45;;;;;;;2.53;1.40;;;15.50;99.90;;;;;;5062075;28;20191;-58
2022/07/16 00:16:13;;;;;;;1.43;1.37;;;15.60;99.90;;;;;;5057183;28;20225;-58
2022/07/16 00:21:25;;;;;;;2.13;1.53;;;15.50;99.90;;;;;;5060331;28;20667;-58
2022/07/16 00:23:53;;;;;;;3.40;1.63;;;15.50;99.90;;;;;;5063371;28;20233;-57
2022/07/16 00:26:20;;;;;;;3.53;1.80;;;15.40;99.90;;;;;;5060751;28;20218;-58
2022/07/16 00:28:47;;;;;;;4.47;1.70;;;15.30;99.90;;;;;;5063089;28;20614;-58
2022/07/16 00:31:14;;;;;;;2.10;1.90;;;15.30;99.90;;;;;;5062213;28;20206;-58
2022/07/16 00:33:41;;;;;;;2.00;1.80;;;15.20;99.90;;;;;;5046369;28;20198;-58
2022/07/16 00:36:09;;;;;;;1.90;1.77;;;15.20;99.90;;;;;;5062879;28;20276;-59
2022/07/16 00:38:36;;;;;;;4.27;2.07;;;15.20;99.90;;;;;;5060379;28;20272;-57
2022/07/16 00:41:04;;;;;;;2.10;2.00;;;15.10;99.90;;;;;;5063413;28;20218;-59
2022/07/16 00:43:31;;;;;;;4.27;2.20;;;15.10;99.90;;;;;;5059398;28;20923;-57
2022/07/16 00:45:58;;;;;;;2.83;2.63;;;15.00;99.90;;;;;;5062362;28;20225;-59
2022/07/16 00:48:25;;;;;;;2.87;2.50;;;15.00;99.90;;;;;;5045287;28;20195;-59
2022/07/16 00:50:52;;;;;;;2.47;2.27;;;15.00;99.90;;;;;;5063222;28;20656;-59
2022/07/16 00:53:19;;;;;;;2.90;2.70;;;14.90;99.90;;;;;;5060498;28;20199;-59
2022/07/16 00:55:46;;;;;;;3.53;3.23;;;14.90;99.90;;;;;;5062337;28;20219;-59
2022/07/16 00:58:15;;;;;;;5.17;2.70;;;14.90;99.90;;;;;;5062024;28;20201;-59
2022/07/16 01:00:42;;;;;;;2.63;2.43;;;14.90;99.90;;;;;;5061335;28;20252;-59
2022/07/16 01:03:10;;;;;;;4.57;3.27;;;14.90;99.90;;;;;;5047760;28;20209;-58
2022/07/16 01:05:37;;;;;;;6.53;2.80;;;14.90;99.90;;;;;;5059254;28;20225;-58
2022/07/16 01:08:05;;;;;;;2.50;2.30;;;14.80;99.90;;;;;;5063143;28;20209;-59
2022/07/16 01:10:32;;;;;;;2.70;2.50;;;14.80;99.90;;;;;;5059391;28;20201;-58
2022/07/16 01:13:00;;;;;;;5.63;2.73;;;14.80;99.90;;;;;;5063226;28;20195;-57
2022/07/16 01:15:29;;;;;;;3.40;2.77;;;14.80;99.90;;;;;;5058776;28;20771;-58
2022/07/16 01:17:56;;;;;;;2.90;2.70;;;14.70;99.90;;;;;;5062950;28;20206;-58
2022/07/16 01:20:23;;;;;;;4.87;3.10;;;14.70;99.90;;;;;;5045009;28;20234;-59
2022/07/16 01:22:53;;;;;;;4.80;3.10;;;14.70;99.90;;;;;;5062480;28;20278;-58
2022/07/16 01:25:21;;;;;;;5.43;3.20;;;14.70;99.90;;;;;;5060004;28;20222;-58
2022/07/16 01:27:49;;;;;;;8.10;3.30;;;14.70;99.90;;;;;;5062963;28;20202;-58
2022/07/16 01:30:16;;;;;;;6.13;3.70;;;14.70;99.90;;;;;;5061597;28;20194;-58
2022/07/16 01:32:43;;;;;;;3.80;2.93;;;14.70;99.90;;;;;;5065061;28;20205;-57
2022/07/16 01:35:11;;;;;;;5.57;2.77;;;14.70;99.90;;;;;;5051459;28;20571;-58
2022/07/16 01:37:38;;;;;;;3.63;3.33;;;14.70;99.90;;;;;;5063658;28;20190;-59
2022/07/16 01:40:06;;;;;;;4.23;3.03;;;14.70;99.90;;;;;;5066800;28;20218;-59
2022/07/16 01:42:35;;;;;;;3.80;3.03;;;14.60;99.90;;;;;;5063183;28;20194;-59
2022/07/16 01:45:02;;;;;;;4.07;3.10;;;14.60;99.90;;;;;;5066212;28;20219;-58
2022/07/16 01:47:29;;;;;;;4.30;3.20;;;14.60;99.90;;;;;;5062755;28;20792;-58
2022/07/16 01:49:56;;;;;;;4.83;3.23;;;14.60;99.90;;;;;;5052635;28;20213;-59
2022/07/16 01:52:23;;;;;;;3.50;3.30;;;14.50;99.90;;;;;;5062424;28;20558;-58
2022/07/16 01:54:52;;;;;;;3.93;3.30;;;14.60;99.90;;;;;;5065779;28;20228;-58
2022/07/16 01:57:21;;;;;;;3.77;3.30;;;14.50;99.90;;;;;;5064020;28;20198;-59
2022/07/16 01:59:50;;;;;;;5.27;3.87;;;14.50;99.90;;;;;;5065790;28;20301;-58
2022/07/16 02:02:17;;;;;;;3.33;3.13;;;14.50;99.90;;;;;;5064499;28;20651;-59
2022/07/16 02:04:44;;;;;;;4.83;3.47;;;14.50;99.90;;;;;;5064651;28;20225;-59
2022/07/16 02:07:10;;;;;;;4.83;3.10;;;14.50;99.90;;;;;;5050632;28;20663;-58
2022/07/16 02:09:37;;;;;;;3.37;3.07;;;14.50;99.90;;;;;;5063539;28;20930;-57
2022/07/16 02:12:05;;;;;;;6.43;4.00;;;14.50;99.90;;;;;;5066127;28;20208;-58
2022/07/16 02:14:32;;;;;;;5.63;4.10;;;14.50;99.90;;;;;;5061966;28;20202;-57
2022/07/16 02:17:00;;;;;;;5.77;3.53;;;14.50;99.90;;;;;;5065928;28;20248;-58
2022/07/16 02:19:27;;;;;;;3.80;3.50;;;14.50;99.90;;;;;;5062008;28;20214;-58
2022/07/16 02:21:54;;;;;;;3.90;3.57;;;14.50;99.90;;;;;;5052571;28;20361;-58
2022/07/16 02:24:21;;;;;;;3.60;3.30;;;14.50;99.90;;;;;;5062387;28;20651;-57
2022/07/16 02:26:48;;;;;;;3.57;3.27;;;14.50;99.90;;;;;;5065369;28;20592;-58
2022/07/16 02:29:15;;;;;;;5.23;3.63;;;14.50;99.90;;;;;;5064113;28;20195;-58
2022/07/16 02:31:42;;;;;;;3.53;3.23;;;14.50;99.90;;;;;;5064040;28;20197;-58
2022/07/16 02:34:10;;;;;;;4.97;2.73;;;14.50;99.90;;;;;;5064889;28;20202;-58
2022/07/16 02:36:37;;;;;;;3.03;2.50;;;14.50;99.90;;;;;;5048342;28;20319;-59
2022/07/16 02:39:04;;;;;;;2.93;2.37;;;14.50;99.90;;;;;;5065487;28;20217;-58
2022/07/16 02:41:31;;;;;;;3.30;2.87;;;14.60;99.90;;;;;;5061274;28;20198;-58
2022/07/16 02:43:58;;;;;;;4.27;2.47;;;14.50;99.90;;;;;;5063730;28;20206;-57
2022/07/16 02:46:25;;;;;;;4.27;2.40;;;14.60;99.90;;;;;;5061672;28;20215;-58
2022/07/16 02:48:52;;;;;;;2.87;2.67;;;14.60;99.90;;;;;;5065748;28;20256;-58
2022/07/16 02:51:20;;;;;;;3.53;2.20;;;14.60;99.90;;;;;;5062963;28;20201;-59
2022/07/16 02:53:47;;;;;;;2.50;2.27;;;14.60;99.90;;;;;;5049921;28;20223;-59
2022/07/16 02:56:15;;;;;;;1.87;1.77;;;14.60;99.90;;;;;;5063966;28;20218;-57
2022/07/16 02:58:42;;;;;;;4.87;2.20;;;14.50;99.90;;;;;;5063367;28;20195;-57
2022/07/16 03:01:09;;;;;;;2.40;1.57;;;14.60;99.90;;;;;;5064942;28;20205;-58
2022/07/16 03:03:35;;;;;;;2.70;2.10;;;14.50;99.90;;;;;;5061628;28;20205;-58
2022/07/16 03:06:02;;;;;;;2.63;1.50;;;14.60;99.90;;;;;;5065158;28;20230;-58
2022/07/16 03:08:31;;;;;;;1.90;1.80;;;14.60;99.90;;;;;;5047857;28;20939;-58
2022/07/16 03:10:57;;;;;;;3.90;2.10;;;14.60;99.90;;;;;;5064992;28;20195;-57
2022/07/16 03:13:24;;;;;;;2.73;1.80;;;14.50;99.90;;;;;;5060837;28;20677;-58
2022/07/16 03:15:52;;;;;;;1.97;1.73;;;14.50;99.90;;;;;;5064852;28;20691;-58
2022/07/16 03:18:19;;;;;;;1.70;1.30;;;14.50;99.90;;;;;;5062485;28;20281;-59
2022/07/16 03:20:46;;;;;;;1.60;1.50;;;14.50;99.90;;;;;;5096170;28;20905;-58
2022/07/16 03:23:13;;;;;;;2.60;1.90;;;14.40;99.90;;;;;;5057617;28;20920;-58
2022/07/16 03:25:41;;;;;;;2.07;1.60;;;14.40;99.90;;;;;;5056167;28;20218;-56
2022/07/16 03:28:08;;;;;;;2.60;1.50;;;14.40;99.90;;;;;;5064608;28;20237;-57
2022/07/16 03:30:36;;;;;;;4.60;1.63;;;14.40;99.90;;;;;;5061783;28;20918;-58
2022/07/16 03:33:03;;;;;;;1.87;1.77;;;14.40;99.90;;;;;;5064619;28;20209;-58
2022/07/16 03:35:30;;;;;;;1.80;1.50;;;14.30;99.90;;;;;;5060245;28;20956;-58
2022/07/16 03:40:44;;;;;;;1.90;1.50;;;14.30;99.90;;;;;;5049074;28;20249;-58
2022/07/16 03:43:11;;;;;;;3.10;1.53;;;14.30;99.90;;;;;;5063218;28;20202;-59
2022/07/16 03:46:00;;;;;;;2.03;1.70;;;14.30;99.90;;;;;;5064155;28;20229;-59
2022/07/16 03:48:27;;;;;;;1.43;1.33;;;14.30;99.90;;;;;;5060407;28;20966;-57
2022/07/16 03:50:54;;;;;;;3.77;1.70;;;14.30;99.90;;;;;;5064153;28;20206;-57
2022/07/16 03:53:21;;;;;;;2.87;1.50;;;14.30;99.90;;;;;;5060989;28;20206;-58
2022/07/16 03:55:49;;;;;;;2.83;1.50;;;14.30;99.90;;;;;;5050556;28;20234;-58
2022/07/16 03:58:16;;;;;;;4.53;1.87;;;14.40;99.90;;;;;;5062088;28;20202;-58
2022/07/16 04:00:42;;;;;;;1.67;1.57;;;14.30;99.90;;;;;;5062095;28;20210;-58
2022/07/16 04:03:09;;;;;;;3.63;1.60;;;14.30;99.90;;;;;;5063446;28;20203;-58
2022/07/16 04:05:37;;;;;;;2.07;1.50;;;14.30;99.90;;;;;;5060960;28;20215;-58
2022/07/16 04:08:04;;;;;;;1.70;1.60;;;14.40;99.90;;;;;;5063946;28;20201;-59
2022/07/16 04:10:31;;;;;;;1.70;1.60;;;14.30;99.90;;;;;;5046974;28;20198;-57
2022/07/16 04:12:59;;;;;;;4.63;1.60;;;14.30;99.90;;;;;;5063637;28;20198;-58
2022/07/16 04:15:26;;;;;;;2.10;1.33;;;14.30;99.90;;;;;;5059275;28;20226;-59
2022/07/16 04:17:53;;;;;;;3.40;1.50;;;14.30;99.90;;;;;;5055866;28;20667;-59
2022/07/16 04:20:20;;;;;;;3.57;1.80;;;14.30;99.90;;;;;;5059616;28;20709;-59
2022/07/16 04:22:47;;;;;;;4.03;1.70;;;14.30;99.90;;;;;;5052722;28;20671;-59
2022/07/16 04:25:14;;;;;;;4.40;1.67;;;14.30;99.90;;;;;;5077023;28;20352;-59
2022/07/16 04:27:41;;;;;;;2.67;1.50;;;14.30;99.90;;;;;;5056345;28;20202;-59
2022/07/16 04:30:11;;;;;;;1.80;1.43;;;14.30;99.90;;;;;;5058056;28;20197;-59
2022/07/16 04:32:38;;;;;;;3.67;1.13;;;14.30;99.90;;;;;;5056269;28;20607;-57
2022/07/16 04:35:06;;;;;;;2.30;1.50;;;14.20;99.90;;;;;;5056845;28;20207;-58
2022/07/16 04:37:33;;;;;;;2.40;1.33;;;14.20;99.90;;;;;;5061591;28;20202;-58
2022/07/16 04:40:00;;;;;;;3.00;1.37;;;14.10;99.90;;;;;;5057046;28;20218;-58
2022/07/16 04:42:27;;;;;;;2.23;1.67;;;14.20;99.90;;;;;;5047225;28;20215;-59
2022/07/16 04:44:54;;;;;;;4.53;1.60;;;14.20;99.90;;;;;;5053538;28;20344;-58
2022/07/16 04:47:22;;;;;;;4.00;1.57;;;14.20;99.90;;;;;;5054699;28;20210;-59
2022/07/16 04:49:49;;;;;;;2.70;1.47;;;14.20;99.90;;;;;;5059123;28;20268;-58
2022/07/16 04:52:16;;;;;;;4.70;1.40;;;14.20;99.90;;;;;;5059424;28;20190;-59
2022/07/16 04:54:42;;;;;;;3.67;1.53;;;14.20;99.90;;;;;;5060390;28;20223;-57
2022/07/16 04:57:09;;;;;;;2.57;1.43;;;14.20;99.90;;;;;;5043969;28;20195;-58
2022/07/16 04:59:36;;;;;;;3.87;1.57;;;14.20;99.90;;;;;;5055844;28;20241;-58
2022/07/16 05:04:46;;;;;;;2.70;1.47;;;14.30;99.90;;;;;;5059385;28;20707;-59
2022/07/16 05:07:13;;;;;;;4.70;1.60;;;14.30;99.90;;;;;;5057032;28;20907;-59
2022/07/16 05:09:40;;;;;;;2.97;1.37;;;14.30;99.90;;;;;;5061109;28;20663;-58
2022/07/16 05:12:07;;;;;;;1.63;1.20;;;14.30;99.90;;;;;;5043099;28;20210;-59
2022/07/16 05:14:34;;;;;;;3.10;1.67;;;14.40;99.90;;;;;;5056071;28;20206;-58
2022/07/16 05:17:00;;;;;;;3.33;1.70;;;14.40;99.90;;;;;;5051924;28;20656;-58
2022/07/16 05:19:27;;;;;;;2.63;1.40;;;14.40;99.90;;;;;;5058382;28;20214;-59
2022/07/16 05:21:56;;;;;;;4.70;1.40;;;14.40;99.90;;;;;;5057780;28;20199;-58
2022/07/16 05:24:23;;;;;;;3.87;1.70;;;14.40;99.90;;;;;;5056471;28;20272;-58
2022/07/16 05:26:50;;;;;;;5.37;1.60;;;14.40;99.90;;;;;;5063031;28;20205;-59
2022/07/16 05:29:17;;;;;;;2.13;1.40;;;14.40;99.90;;;;;;5040396;28;20203;-58
2022/07/16 05:31:43;;;;;;;2.83;1.23;;;14.40;99.90;;;;;;5061903;28;20209;-58
2022/07/16 05:34:10;;;;;;;2.37;1.13;;;14.30;99.90;;;;;;5060653;28;20256;-59
2022/07/16 05:36:37;;;;;;;5.23;1.47;;;14.30;99.90;;;;;;5060094;28;20217;-58
2022/07/16 05:39:05;;;;;;;3.40;1.30;;;14.30;99.90;;;;;;5062007;28;20198;-57
2022/07/16 05:41:33;;;;;;;5.67;1.53;;;14.30;99.90;;;;;;5059756;28;20222;-59
2022/07/16 05:44:01;;;;;;;3.07;1.57;;;14.40;99.90;;;;;;5041220;28;20690;-58
2022/07/16 05:46:27;;;;;;;1.27;1.13;;;14.40;99.90;;;;;;5053798;28;20937;-59
2022/07/16 05:48:54;;;;;;;3.00;1.20;;;14.40;99.90;;;;;;5055975;28;20207;-59
2022/07/16 05:51:21;;;;;;;4.53;1.87;;;14.40;99.90;;;;;;5053275;28;20186;-57
2022/07/16 05:53:48;;;;;;;2.77;1.47;;;14.50;99.90;;;;;;5060557;28;20198;-57
2022/07/16 05:56:16;;;;;;;5.93;1.50;;;14.50;99.90;;;;;;5059314;28;20215;-56
2022/07/16 05:58:43;;;;;;;2.50;1.33;;;14.50;99.90;;;;;;5047661;28;20207;-56
2022/07/16 06:01:10;;;;;;;3.13;1.13;;;14.50;99.90;;;;;;5055969;28;20686;-55
2022/07/16 06:03:38;;;;;;;3.93;1.10;;;14.50;99.90;;;;;;5060473;28;20276;-55
2022/07/16 06:06:04;;;;;;;2.53;1.10;;;14.60;99.90;;;;;;5056498;28;20218;-56
2022/07/16 06:08:31;;;;;;;4.03;1.13;;;14.50;99.90;;;;;;5059239;28;20203;-53
2022/07/16 06:10:59;;;;;;;5.90;1.07;;;14.60;99.90;;;;;;5062259;28;20195;-55
2022/07/16 06:13:27;;;;;;;3.97;1.07;;;14.50;99.90;;;;;;5058392;28;20865;-52
2022/07/16 06:15:54;;;;;;;2.83;1.17;;;14.50;99.90;;;;;;5043225;28;20295;-58
2022/07/16 06:18:21;;;;;;;5.17;1.40;;;14.60;99.90;;;;;;5054534;28;20195;-56
2022/07/16 06:20:48;;;;;;;2.30;1.30;;;14.60;99.90;;;;;;5065124;28;20222;-55
2022/07/16 06:23:15;;;;;;;2.43;1.10;;;14.60;99.90;;;;;;5054512;28;20198;-58
2022/07/16 06:25:42;;;;;;;5.70;0.93;;;14.70;99.90;;;;;;5053770;28;20674;-57
2022/07/16 06:28:09;;;;;;;2.60;0.90;;;14.70;99.90;;;;;;5062627;28;20195;-57
2022/07/16 06:30:37;;;;;;;3.53;1.13;;;14.80;99.90;;;;;;5050045;28;20206;-54
2022/07/16 06:33:04;;;;;;;7.50;1.10;;;14.80;99.90;;;;;;5055314;28;20202;-53
2022/07/16 06:35:31;;;;;;;4.80;1.00;;;14.80;99.90;;;;;;5064562;28;20601;-54
2022/07/16 06:37:58;;;;;;;2.63;0.97;;;14.80;99.90;;;;;;5061959;28;20273;-55
2022/07/16 06:40:25;;;;;;;4.00;0.93;;;14.80;99.90;;;;;;5062620;28;20211;-53
2022/07/16 06:42:53;;;;;;;3.10;0.70;;;14.90;99.90;;;;;;5065155;28;20198;-57
2022/07/16 06:45:21;;;;;;;1.93;0.70;;;14.90;99.90;;;;;;5062310;28;20226;-57
2022/07/16 06:47:50;;;;;;;4.83;1.10;;;15.00;99.90;;;;;;5050166;28;20214;-53
2022/07/16 06:50:17;;;;;;;2.90;0.67;;;15.00;99.90;;;;;;5061466;28;20186;-57
2022/07/16 06:52:43;;;;;;;2.87;0.70;;;15.00;99.90;;;;;;5064173;28;20207;-53
2022/07/16 06:55:10;;;;;;;3.13;1.10;;;15.10;99.90;;;;;;5060733;28;20215;-54
2022/07/16 06:57:37;;;;;;;4.07;0.90;;;15.10;99.90;;;;;;5058463;28;20202;-52
2022/07/16 07:00:06;;;;;;;6.17;0.73;;;15.10;99.90;;;;;;5056033;28;20215;-54
2022/07/16 07:02:33;;;;;;;4.33;0.80;;;15.20;99.90;;;;;;5044057;28;20206;-53
2022/07/16 07:05:01;;;;;;;2.63;0.87;;;15.30;99.90;;;;;;5062706;28;20218;-58
2022/07/16 07:07:28;;;;;;;3.97;1.00;;;15.50;99.90;;;;;;5056499;28;20190;-56
2022/07/16 07:09:55;;;;;;;8.97;0.97;;;15.50;99.90;;;;;;5064035;28;20206;-55
2022/07/16 07:12:23;;;;;;;3.43;0.93;;;15.50;99.90;;;;;;5061603;28;20194;-52
2022/07/16 07:14:49;;;;;;;4.13;0.87;;;15.50;99.90;;;;;;5063217;28;20225;-52
2022/07/16 07:17:16;;;;;;;2.73;0.80;;;15.60;99.90;;;;;;5044627;28;20211;-56
2022/07/16 07:19:43;;;;;;;3.17;0.83;;;15.60;99.90;;;;;;5064703;28;20686;-57
2022/07/16 07:22:11;;;;;;;4.83;1.20;;;15.60;99.90;;;;;;5060612;28;20215;-55
2022/07/16 07:24:38;;;;;;;2.43;0.97;;;15.60;99.90;;;;;;5063955;28;20210;-56
2022/07/16 07:27:05;;;;;;;2.93;1.10;;;15.50;99.90;;;;;;5061346;28;20251;-56
2022/07/16 07:29:32;;;;;;;4.10;0.80;;;15.50;99.90;;;;;;5063433;28;20261;-55
2022/07/16 07:32:00;;;;;;;4.37;0.90;;;15.50;99.90;;;;;;5055632;28;20187;-57
2022/07/16 07:34:26;;;;;;;4.03;0.90;;;15.50;99.90;;;;;;5054705;28;20383;-54
2022/07/16 07:36:53;;;;;;;2.60;1.00;;;15.50;99.90;;;;;;5064379;28;20282;-57
2022/07/16 07:39:21;;;;;;;2.10;0.90;;;15.70;99.90;;;;;;5060681;28;20191;-58
2022/07/16 07:41:48;;;;;;;4.33;1.00;;;15.80;99.90;;;;;;5064603;28;20233;-56
2022/07/16 07:44:15;;;;;;;5.67;1.00;;;15.90;99.90;;;;;;5051753;28;20207;-55
2022/07/16 07:46:42;;;;;;;3.47;0.87;;;16.00;99.90;;;;;;5051177;28;20233;-50
2022/07/16 07:49:11;;;;;;;4.50;0.70;;;16.10;99.90;;;;;;5041430;28;20210;-55
2022/07/16 07:51:38;;;;;;;2.13;0.77;;;16.20;99.90;;;;;;5060106;28;20194;-55
2022/07/16 07:54:04;;;;;;;3.67;0.80;;;16.30;99.90;;;;;;5056857;28;20203;-57
2022/07/16 07:56:33;;;;;;;4.40;0.80;;;16.40;99.90;;;;;;5060059;28;20309;-59
2022/07/16 07:58:59;;;;;;;2.47;0.90;;;16.50;99.90;;;;;;5064154;28;20218;-58
2022/07/16 08:01:26;;;;;;;2.63;0.77;;;16.40;99.90;;;;;;5059016;28;20218;-59
2022/07/16 08:03:53;;;;;;;1.77;1.03;;;16.30;99.90;;;;;;5047494;28;20218;-54
2022/07/16 08:06:20;;;;;;;4.83;0.83;;;16.10;99.90;;;;;;5055834;28;20746;-54
2022/07/16 08:08:47;;;;;;;3.33;0.67;;;16.00;99.90;;;;;;5055322;28;20195;-56
2022/07/16 08:11:14;;;;;;;3.37;1.00;;;15.90;99.90;;;;;;5062415;28;20202;-57
2022/07/16 08:13:42;;;;;;;3.87;1.00;;;15.90;99.90;;;;;;5060336;28;20890;-57
2022/07/16 08:16:09;;;;;;;5.87;1.00;;;16.00;99.90;;;;;;5063565;28;20218;-57
2022/07/16 08:18:36;;;;;;;3.20;1.00;;;16.10;99.90;;;;;;5043726;28;20331;-54
2022/07/16 08:21:02;;;;;;;6.77;1.23;;;16.30;99.90;;;;;;5057509;28;20276;-60
2022/07/16 08:26:15;;;;;;;2.73;0.60;;;16.50;99.90;;;;;;5051928;28;20244;-60
2022/07/16 08:28:44;;;;;;;4.43;1.00;;;16.60;99.90;;;;;;5060449;28;20201;-61
2022/07/16 08:31:13;;;;;;;2.80;1.10;;;16.70;99.90;;;;;;5053419;28;20205;-60
2022/07/16 08:33:41;;;;;;;3.27;0.87;;;16.80;99.90;;;;;;5064154;28;20187;-60
2022/07/16 08:36:08;;;;;;;2.83;0.80;;;17.00;99.90;;;;;;5045580;28;20726;-60
2022/07/16 08:38:35;;;;;;;6.37;0.90;;;17.10;99.90;;;;;;5060686;28;20936;-60
2022/07/16 08:41:02;;;;;;;3.57;0.73;;;17.30;99.90;;;;;;5062596;28;20218;-60
2022/07/16 08:43:30;;;;;;;2.23;0.80;;;17.40;99.90;;;;;;5059606;28;20202;-60
2022/07/16 08:45:58;;;;;;;1.73;0.63;;;17.60;99.90;;;;;;5056140;28;20301;-60
2022/07/16 08:48:25;;;;;;;3.13;1.00;;;17.40;99.90;;;;;;5059401;28;20195;-60
2022/07/16 08:50:54;;;;;;;3.50;1.07;;;17.30;99.90;;;;;;5047364;28;20210;-60
2022/07/16 08:53:23;;;;;;;3.63;0.80;;;17.10;99.90;;;;;;5058785;28;20210;-60
2022/07/16 08:55:52;;;;;;;2.80;0.80;;;17.00;99.90;;;;;;5063307;28;20226;-60
2022/07/16 08:58:20;;;;;;;3.10;1.03;;;16.90;99.90;;;;;;5059570;28;20256;-60
2022/07/16 09:00:48;;;;;;;2.97;0.50;;;16.80;99.90;;;;;;5056000;28;20203;-59
2022/07/16 09:03:16;;;;;;;4.33;0.60;;;16.80;99.90;;;;;;5060094;28;20199;-60
2022/07/16 09:05:43;;;;;;;1.43;0.50;;;16.70;99.90;;;;;;5046729;28;20276;-60
2022/07/16 09:08:10;;;;;;;1.40;0.90;;;16.90;99.90;;;;;;5060970;28;20190;-60
2022/07/16 09:10:39;;;;;;;3.23;0.60;;;17.00;99.90;;;;;;5061318;28;20896;-60
2022/07/16 09:13:06;;;;;;;3.57;1.10;;;17.00;99.90;;;;;;5062070;28;20213;-60
2022/07/16 09:15:35;;;;;;;4.60;1.13;;;17.10;99.90;;;;;;5059790;28;21002;-60
2022/07/16 09:18:13;;;;;;;0.97;0.77;;;17.20;99.90;;;;;;5056035;28;20293;-60
2022/07/16 09:20:45;;;;;;;5.97;0.70;;;17.10;99.90;;;;;;5045815;28;20210;-60
2022/07/16 09:23:24;;;;;;;3.00;0.70;;;17.10;99.90;;;;;;5060037;28;20209;-60
2022/07/16 09:25:53;;;;;;;3.30;1.00;;;17.20;99.90;;;;;;5062793;28;20242;-59
2022/07/16 09:28:20;;;;;;;4.60;0.87;;;17.10;99.90;;;;;;5059327;28;20199;-59
2022/07/16 09:30:47;;;;;;;2.07;0.80;;;17.20;99.90;;;;;;5062987;28;20198;-59
2022/07/16 09:33:16;;;;;;;5.17;0.97;;;17.20;99.90;;;;;;5053246;28;20207;-59
2022/07/16 09:35:45;;;;;;;2.57;0.80;;;17.30;99.90;;;;;;5048249;28;20291;-59
2022/07/16 09:38:13;;;;;;;1.27;0.63;;;17.40;99.90;;;;;;5060467;28;20706;-59
2022/07/16 09:40:42;;;;;;;2.37;0.80;;;17.50;99.90;;;;;;5061438;28;20207;-60
2022/07/16 09:43:27;;;;;;;3.23;1.40;;;17.60;99.90;;;;;;5061235;28;20190;-59
2022/07/16 09:45:59;;;;;;;3.33;1.03;;;17.80;99.90;;;;;;5062769;28;20661;-60
2022/07/16 09:48:28;;;;;;;4.87;0.97;;;17.80;99.90;;;;;;5045385;28;20252;-59
2022/07/16 09:50:58;;;;;;;5.97;0.97;;;17.70;99.90;;;;;;5062899;28;20203;-59
2022/07/16 09:53:28;;;;;;;5.53;0.70;;;17.60;99.90;;;;;;5045865;28;20207;-60
2022/07/16 09:56:01;;;;;;;3.10;1.33;;;17.50;99.90;;;;;;5066324;28;20230;-60
2022/07/16 09:58:29;;;;;;;2.57;0.93;;;17.40;99.90;;;;;;5062742;28;20269;-60
2022/07/16 10:00:57;;;;;;;3.47;0.83;;;17.20;99.90;;;;;;5066130;28;20226;-59
2022/07/16 10:03:25;;;;;;;5.70;1.33;;;17.20;99.90;;;;;;5055013;28;20202;-59
2022/07/16 10:05:53;;;;;;;3.23;0.80;;;17.30;99.90;;;;;;5057523;28;20226;-60
2022/07/16 10:08:23;;;;;;;2.63;0.70;;;17.40;99.90;;;;;;5048146;28;20931;-59
2022/07/16 10:10:51;;;;;;;2.83;1.07;;;17.50;99.90;;;;;;5066545;28;20198;-60
2022/07/16 10:13:24;;;;;;;3.93;0.93;;;17.50;99.90;;;;;;5063710;28;20202;-61
2022/07/16 10:15:52;;;;;;;1.30;0.70;;;17.50;99.90;;;;;;5064962;28;20577;-60
2022/07/16 10:18:34;;;;;;;2.47;0.97;;;17.40;99.90;;;;;;5056271;28;20207;-60
2022/07/16 10:21:07;;;;;;;4.77;1.10;;;17.40;99.50;;;;;;5064199;28;20195;-60
2022/07/16 10:23:37;;;;;;;3.37;1.00;;;17.50;99.90;;;;;;5049921;28;20214;-60
2022/07/16 10:26:07;;;;;;;7.53;1.23;;;17.80;99.90;;;;;;5059503;28;20603;-60
2022/07/16 10:28:44;;;;;;;3.50;0.80;;;17.90;99.90;;;;;;5065537;28;20202;-60
2022/07/16 10:34:39;;;;;;;4.17;1.10;;;17.50;99.90;;;;;;5051102;28;20236;-60
2022/07/16 10:37:08;;;;;;;4.53;0.93;;;17.40;99.90;;;;;;5042269;28;20553;-59
2022/07/16 10:39:59;;;;;;;1.87;0.70;;;17.30;99.90;;;;;;5065139;28;20277;-60
2022/07/16 10:42:27;;;;;;;6.27;1.03;;;17.40;99.90;;;;;;5057057;28;20226;-60
2022/07/16 10:44:54;;;;;;;5.10;1.30;;;17.60;99.90;;;;;;5063721;28;20226;-59
2022/07/16 10:47:21;;;;;;;2.30;0.90;;;17.80;99.90;;;;;;5063625;28;20225;-60
2022/07/16 10:50:15;;;;;;;3.30;0.93;;;17.90;99.90;;;;;;5062171;28;20199;-60
2022/07/16 10:52:43;;;;;;;2.97;1.00;;;18.00;99.60;;;;;;5065348;28;20190;-60
2022/07/16 10:55:11;;;;;;;4.23;0.70;;;18.10;99.60;;;;;;5044987;28;20210;-60
2022/07/16 10:57:41;;;;;;;2.03;0.80;;;18.20;99.00;;;;;;5060090;28;20210;-60
2022/07/16 11:00:09;;;;;;;2.83;0.80;;;18.10;98.20;;;;;;5061466;28;20789;-59
2022/07/16 11:02:39;;;;;;;4.00;0.93;;;17.90;98.50;;;;;;5065710;28;20219;-60
2022/07/16 11:05:06;;;;;;;2.77;1.27;;;17.90;98.80;;;;;;5052974;28;20218;-60
2022/07/16 11:07:35;;;;;;;5.37;1.00;;;18.00;99.00;;;;;;5065421;28;20644;-60
2022/07/16 11:10:03;;;;;;;2.03;1.13;;;18.20;98.10;;;;;;5046211;28;20199;-59
2022/07/16 11:12:33;;;;;;;5.67;1.10;;;18.30;98.00;;;;;;5065008;28;20202;-60
2022/07/16 11:15:01;;;;;;;2.10;1.00;;;18.40;97.90;;;;;;5061010;28;20223;-60
2022/07/16 11:17:31;;;;;;;4.37;0.90;;;18.40;97.70;;;;;;5068597;28;20205;-60
2022/07/16 11:20:00;;;;;;;4.90;1.07;;;18.30;96.60;;;;;;5054339;28;20197;-60
2022/07/16 11:22:29;;;;;;;2.33;0.70;;;18.30;97.40;;;;;;5061056;28;20226;-60
2022/07/16 11:24:58;;;;;;;4.10;1.00;;;18.30;97.60;;;;;;5046035;28;20317;-59
2022/07/16 11:27:26;;;;;;;2.40;0.93;;;18.40;97.70;;;;;;5066151;28;20230;-60
2022/07/16 11:29:57;;;;;;;1.63;0.60;;;18.30;97.10;;;;;;5062130;28;20778;-60
2022/07/16 11:32:24;;;;;;;3.53;0.90;;;18.20;97.00;;;;;;5072839;28;20199;-60
2022/07/16 11:34:51;;;;;;;2.40;1.20;;;18.20;97.40;;;;;;5062762;28;20691;-60
2022/07/16 11:37:18;;;;;;;5.60;1.00;;;18.20;97.40;;;;;;5055273;28;20268;-60
2022/07/16 11:39:45;;;;;;;4.70;0.80;;;18.30;97.20;;;;;;5061745;28;20265;-60
2022/07/16 11:42:12;;;;;;;5.70;1.07;;;18.40;96.50;;;;;;5047937;28;20219;-60
2022/07/16 11:44:41;;;;;;;2.60;1.00;;;18.50;95.90;;;;;;5066074;28;20207;-60
2022/07/16 11:47:11;;;;;;;4.70;1.00;;;18.50;95.50;;;;;;5060570;28;20831;-60
2022/07/16 11:49:40;;;;;;;2.60;1.07;;;18.50;95.30;;;;;;5064035;28;20199;-60
2022/07/16 11:52:10;;;;;;;6.17;1.60;;;18.40;95.70;;;;;;5053312;28;20191;-60
2022/07/16 11:54:40;;;;;;;3.97;0.90;;;18.20;96.10;;;;;;5063681;28;20691;-60
2022/07/16 11:57:10;;;;;;;4.00;1.77;;;18.10;96.60;;;;;;5047888;28;20198;-60
2022/07/16 11:59:41;;;;;;;3.77;0.90;;;18.10;96.80;;;;;;5064145;28;20605;-60
2022/07/16 12:02:13;;;;;;;4.00;0.93;;;18.20;97.00;;;;;;5061034;28;20922;-60
2022/07/16 12:04:42;;;;;;;3.90;0.93;;;18.40;96.40;;;;;;5063537;28;20281;-60
2022/07/16 12:07:10;;;;;;;3.87;0.90;;;18.50;95.70;;;;;;5053504;28;23133;-59
2022/07/16 12:09:39;;;;;;;5.13;0.90;;;18.50;95.40;;;;;;5063762;28;20285;-59
2022/07/16 12:12:12;;;;;;;3.33;1.17;;;18.60;95.20;;;;;;5047972;28;20194;-60
2022/07/16 12:14:51;;;;;;;4.07;0.80;;;18.60;95.80;;;;;;5063285;28;20201;-60
2022/07/16 12:17:21;;;;;;;7.13;0.90;;;18.70;95.50;;;;;;5056723;28;20274;-59
2022/07/16 12:20:13;;;;;;;5.47;1.30;;;18.60;95.30;;;;;;5062312;28;20199;-59
2022/07/16 12:22:47;;;;;;;2.97;1.10;;;18.50;95.50;;;;;;5056258;28;20222;-59
2022/07/16 12:25:20;;;;;;;4.00;1.00;;;18.40;95.80;;;;;;5061275;28;20287;-60
2022/07/16 12:27:48;;;;;;;4.43;0.90;;;18.40;95.70;;;;;;5045791;28;20214;-59
2022/07/16 12:30:14;;;;;;;5.70;1.17;;;18.40;96.10;;;;;;5061373;28;20277;-60
2022/07/16 12:32:50;;;;;;;5.13;1.00;;;18.40;96.00;;;;;;5063196;28;20209;-58
2022/07/16 12:35:41;;;;;;;7.07;0.93;;;18.60;96.20;;;;;;5055122;28;20297;-59
2022/07/16 12:38:09;;;;;;;4.73;1.20;;;18.70;95.50;;;;;;5049771;28;20415;-59
2022/07/16 12:40:37;;;;;;;5.63;1.33;;;18.70;95.90;;;;;;5063409;28;20578;-59
2022/07/16 12:43:04;;;;;;;3.47;1.50;;;18.60;95.70;;;;;;5043286;28;20292;-59
2022/07/16 12:45:31;;;;;;;3.80;1.13;;;18.50;95.50;;;;;;5062826;28;20257;-59
2022/07/16 12:48:00;;;;;;;5.50;1.00;;;18.50;95.80;;;;;;5058708;28;20207;-59
2022/07/16 12:50:27;;;;;;;2.97;0.93;;;18.60;95.60;;;;;;5062980;28;20660;-59
2022/07/16 12:52:54;;;;;;;3.87;0.80;;;18.60;95.50;;;;;;5060012;28;20194;-59
2022/07/16 13:00:50;;;;;;;2.50;0.77;;;19.20;94.40;;;;;;5060840;28;20244;-59
2022/07/16 13:03:18;;;;;;;5.23;1.47;;;19.50;93.10;;;;;;5061207;28;20373;-60
2022/07/16 13:05:45;;;;;;;3.77;0.70;;;19.50;92.80;;;;;;5061818;28;20219;-59
2022/07/16 13:08:12;;;;;;;2.63;0.70;;;19.20;92.20;;;;;;5060658;28;20295;-59
2022/07/16 13:10:40;;;;;;;3.20;0.80;;;19.00;92.60;;;;;;5056466;28;20221;-59
2022/07/16 13:13:08;;;;;;;3.00;0.80;;;18.90;92.80;;;;;;5059702;28;20345;-59
2022/07/16 13:15:35;;;;;;;5.80;0.87;;;18.90;92.90;;;;;;5046603;28;20740;-60